Long Lake, NY (12847)

7:07 AM EST on March 02, 2015 (GMT -0500)
Adirondack Acres | Change Station
CLOSE
Current Station
Personal Weather Station
Location: Long Lake, NY
Elevation: 1650 ft
Nearby Weather Stations

Elev 1650 ft 43.98 °N, 74.43 °W | Updated 20 seconds ago

Snow
Snow
17.4 °F
Feels Like 17 °F
N
0.0
Wind Variable Wind from SSW
Gusts 4.9 mph

Today
High -- | Low -- °F
--% Chance of Precip.
Yesterday
High -- | Low -- °F
Precip. -- in
6:33 AM 5:47 PM
Waxing Gibbous, 91% visible
Pressure 29.97 in
Visibility 1.0 miles
Clouds
Windchill 17 °F
Dew Point 9 °F
Humidity 69%
Rainfall 0.00 in
Snow Depth Not available.
UV Not available.
Pollen .40 out of 12
Air Quality Not available.
Flu Activity Not available.
METAR KSLK 021151Z AUTO 29006KT 1SM -SN BR M08/M11 A2989 RMK AO2 SLP149 P0001 60001 70003 T10831106 11067 21083 53004 $

More Conditions Fewer Conditions

Pressure 29.97 in
Visibility 1.0 miles
Clouds
Windchill 17 °F
Dew Point 9 °F
Humidity 69%
Rainfall 0.00 in
Snow Depth Not available.
UV Not available.
Pollen .40 out of 12
Air Quality Not available.
Flu Activity Not available.
METAR KSLK 021151Z AUTO 29006KT 1SM -SN BR M08/M11 A2989 RMK AO2 SLP149 P0001 60001 70003 T10831106 11067 21083 53004 $

More Conditions Fewer Conditions

10-Day Weather Forecast

Almanac

Astronomy

Mar. 02, 2015 Rise Set
Actual Time
Civil Twilight
Nautical Twilight
Astronomical Twilight
Moon
Length of Visible Light
Length of Day
Tomorrow will be .
, % of the Moon is Illuminated

Today's Extremes

State Highs State Lows

Community

WunderPhotos

Upload Photos

1,801,761 photos uploaded!

WunderBlogs® & News

Nearby

Air Quality

  Air Quality AQ Index Pollutant
Not available.

Snow Depth

Station Depth Elevation

Earthquake Activity

City Distance Mag. Time & Date
Minimum magnitude displayed is 2.5.

Coastal Water Temperatures

Place Temperature

Nearby Weather Stations